map of ORF home
ORF - Airport
Location
City:  Norfolk, Virginia, United States
Name:Norfolk International Airport
ICAO:KORF
IATA:ORF
FAA LID:ORF

Details
Type:Airport (Part 139 Class I)
Use:Public/Civil, International (customs landing rights)
Latitude:3653'41"N (36.894611)
Longitude:7612'04"W (-76.201221)
Datum:WGS 1984
Elevation:26 ft (8 m)
Variation:10.91W (WMM2015 magnetic declination)
-0.02 annual change
Runways:2
Longest:9001 × 150 ft (2744 × 45.5 m), paved

Time
Time Zone:UTC-5 (DST-4)
Local Time:

Weather
METAR:KORF 240051Z 01008KT 10SM CLR 25/19 A3003 RMK AO2 SLP168 T02500194
TAF:KORF 232320Z 2400/2424 04006KT P6SM BKN060
FM240300 03005KT P6SM SCT150
FM241300 04010KT P6SM SKC

Related Locations
Nearby:
Farthest:YAUG: 11780 mi / 18958 km
Augusta [Augusta Airport], WA, AU

Find:

   beyond  
but within

Other Information
Maps:
Delays:
NOTAMs:
Links:
Sources:

  
flag of United States
flag of Virginia
  

Airport Diagram

Airport diagram for ORF

Airport diagram PDF

Sectional Chart

Flight Planning
at skyvector.com

Satellite Image

Google Maps Satellite view

 

Copyright © 2004-2018 Karl L. Swartz. All rights reserved.
The Great Circle Mapper name and logo are trademarks of the Great Circle Mapper.
All other trademarks mentioned herein belong to their respective owners.
Please see credits for attibutions and further copyright information.

  Follow gcmap on Facebook Follow gcmap on Twitter Follow gcmap on Google+ GCmap on LinkedIn

hCard Microformat

Geo Microformat